This is the latest recevied weather packets stored in our database for station/object NY3Q. If no packets are shown the sender has not sent any weather packets the latest 1 day(s).
| Time | Temp. | Humidity | Pressure | Rain* | Wind** | Luminosity | Snow |
|---|---|---|---|---|---|---|---|
| 1778091285 | 33.89° C | 43% | 1016.1 hPa | 0 mm | - | 647 W/m² | - |
| 1778088254 | 32.78° C | 47% | 1016.5 hPa | 0 mm | - | 588 W/m² | - |
| 1778087951 | 32.78° C | 48% | 1017 hPa | 0 mm | - | 609 W/m² | - |
| 1778087347 | 32.78° C | 48% | 1017 hPa | 0 mm | - | 520 W/m² | - |
| 1778084919 | 32.22° C | 50% | 1017.2 hPa | 0 mm | - | 577 W/m² | - |
| 1778084012 | 31.67° C | 53% | 1017.5 hPa | 0 mm | - | 560 W/m² | - |
| 1778083710 | 31.11° C | 53% | 1017.6 hPa | 0 mm | - | 562 W/m² | - |
| 1778083105 | 30.56° C | 54% | 1017.5 hPa | 0 mm | - | 610 W/m² | - |
| 1778082801 | 30.56° C | 52% | 1017.5 hPa | 0 mm | - | 592 W/m² | - |
| 1778081371 | 30° C | 55% | 1017.5 hPa | 0 mm | - | 550 W/m² | - |
| 1778080766 | 30° C | 54% | 1017.4 hPa | 0 mm | - | 532 W/m² | - |
| 1778077737 | 27.78° C | 60% | 1017.1 hPa | 0 mm | - | 461 W/m² | - |
| 1778076225 | 27.22° C | 63% | 1017.2 hPa | 0 mm | - | 383 W/m² | - |
| 1778075922 | 26.67° C | 65% | 1017.3 hPa | 0 mm | - | 368 W/m² | - |
| 1778075315 | 26.11° C | 66% | 1017.3 hPa | 0 mm | - | 329 W/m² | - |
| 1778074102 | 25.56° C | 69% | 1017.4 hPa | 0 mm | - | 283 W/m² | - |
| 1778073497 | 25° C | 70% | 1017.5 hPa | 0 mm | - | 202 W/m² | - |
| 1778073193 | 24.44° C | 70% | 1017.5 hPa | 0 mm | - | 223 W/m² | - |
| 1778072285 | 24.44° C | 71% | 1017.4 hPa | 0 mm | - | 169 W/m² | - |
| 1778071681 | 23.89° C | 71% | 1017 hPa | 0 mm | - | 184 W/m² | - |
| 1778070774 | 23.33° C | 75% | 1016.9 hPa | 0 mm | - | 162 W/m² | - |
| 1778069259 | 20.56° C | 88% | 1016.7 hPa | 0 mm | - | 80 W/m² | - |
| 1778067446 | 18.33° C | 94% | 1016.8 hPa | 0 mm | - | 53 W/m² | - |
| 1778067143 | 17.78° C | 94% | 1016.5 hPa | 0 mm | - | 47 W/m² | - |
| 1778066537 | 16.67° C | 94% | 1016.6 hPa | 0 mm | - | 32 W/m² | - |
* Rain latest hour (hover to see other rain measurements)
** Current wind speed in m/s (hover to see current wind gust speed)